Airport View

Enter AWOS ICAO identifier for current METAR.

ex. KFNL

KFNL 250120Z AUTO 17004KT 10SM SCT009 BKN055 OVC110 08/07 A3008 RMK AO2 RAE01 P0000

25 May 2020 01:55

Frequency: 135.075

Phone: 970-669-9187

Other Area AWOS: KGXY - KLMO - KEIK - KBDU

TAF AMD KBJC 250130Z 2502/2524 VRB05KT P6SM SCT030 BKN070 TEMPO 2502/2504 6SM -SHRA BKN030 FM250400 25006KT P6SM SCT035 BKN060 OVC120 FM251500 35007KT P6SM SCT060 BKN110 FM251800 03008KT P6SM SCT060 SCT100 FM252200 05010KT P6SM VCSH SCT070 BKN110